sensor_id;sensor_type;location;lat;lon;timestamp;pressure;altitude;pressure_sealevel;temperature;humidity
60061;BME280;45933;51.336;12.612;2023-03-13T00:01:01;99105.56;;;8.32;65.89
60061;BME280;45933;51.336;12.612;2023-03-13T00:03:26;99111.69;;;8.28;66.25
60061;BME280;45933;51.336;12.612;2023-03-13T00:05:58;99110.75;;;8.34;65.79
60061;BME280;45933;51.336;12.612;2023-03-13T00:08:24;99112.41;;;8.41;65.51
60061;BME280;45933;51.336;12.612;2023-03-13T00:10:50;99108.91;;;8.45;65.46
60061;BME280;45933;51.336;12.612;2023-03-13T00:13:15;99111.47;;;8.47;65.10
60061;BME280;45933;51.336;12.612;2023-03-13T00:15:40;99112.41;;;8.44;65.78
60061;BME280;45933;51.336;12.612;2023-03-13T00:18:06;99107.94;;;8.52;65.21
60061;BME280;45933;51.336;12.612;2023-03-13T00:20:31;99106.25;;;8.50;65.22
60061;BME280;45933;51.336;12.612;2023-03-13T00:22:56;99101.03;;;8.51;65.18
60061;BME280;45933;51.336;12.612;2023-03-13T00:25:22;99095.84;;;8.51;65.21
60061;BME280;45933;51.336;12.612;2023-03-13T00:27:47;99098.47;;;8.50;65.45
60061;BME280;45933;51.336;12.612;2023-03-13T00:30:13;99100.97;;;8.57;65.06
60061;BME280;45933;51.336;12.612;2023-03-13T00:32:43;99090.44;;;8.67;64.70
60061;BME280;45933;51.336;12.612;2023-03-13T00:35:13;99088.75;;;8.66;64.69
60061;BME280;45933;51.336;12.612;2023-03-13T00:37:39;99089.63;;;8.63;64.53
60061;BME280;45933;51.336;12.612;2023-03-13T00:40:05;99089.53;;;8.69;64.45
60061;BME280;45933;51.336;12.612;2023-03-13T00:42:30;99090.38;;;8.71;64.35
60061;BME280;45933;51.336;12.612;2023-03-13T00:44:56;99089.59;;;8.66;64.35
60061;BME280;45933;51.336;12.612;2023-03-13T00:47:21;99091.19;;;8.76;64.17
60061;BME280;45933;51.336;12.612;2023-03-13T00:49:46;99085.22;;;8.68;64.50
60061;BME280;45933;51.336;12.612;2023-03-13T00:52:11;99084.28;;;8.74;64.44
60061;BME280;45933;51.336;12.612;2023-03-13T00:54:37;99086.84;;;8.77;64.36
60061;BME280;45933;51.336;12.612;2023-03-13T00:57:03;99085.16;;;8.73;64.29
60061;BME280;45933;51.336;12.612;2023-03-13T00:59:28;99089.38;;;8.81;64.03
60061;BME280;45933;51.336;12.612;2023-03-13T01:01:53;99088.56;;;8.78;64.10
60061;BME280;45933;51.336;12.612;2023-03-13T01:04:19;99093.00;;;8.71;64.66
60061;BME280;45933;51.336;12.612;2023-03-13T01:06:44;99094.63;;;8.75;64.11
60061;BME280;45933;51.336;12.612;2023-03-13T01:09:12;99077.22;;;8.83;63.86
60061;BME280;45933;51.336;12.612;2023-03-13T01:11:39;99079.84;;;8.80;64.12
60061;BME280;45933;51.336;12.612;2023-03-13T01:14:08;99082.38;;;8.85;63.90
60061;BME280;45933;51.336;12.612;2023-03-13T01:16:35;99072.16;;;8.73;63.90
60061;BME280;45933;51.336;12.612;2023-03-13T01:19:10;99071.97;;;8.85;63.54
60061;BME280;45933;51.336;12.612;2023-03-13T01:21:36;99075.56;;;8.78;64.05
60061;BME280;45933;51.336;12.612;2023-03-13T01:24:02;99065.91;;;8.87;63.37
60061;BME280;45933;51.336;12.612;2023-03-13T01:26:28;99061.50;;;8.91;63.09
60061;BME280;45933;51.336;12.612;2023-03-13T01:28:54;99067.56;;;8.90;63.37
60061;BME280;45933;51.336;12.612;2023-03-13T01:31:22;99058.81;;;8.96;62.95
60061;BME280;45933;51.336;12.612;2023-03-13T01:33:50;99054.47;;;8.96;62.72
60061;BME280;45933;51.336;12.612;2023-03-13T01:36:16;99050.97;;;9.02;62.67
60061;BME280;45933;51.336;12.612;2023-03-13T01:38:42;99044.03;;;9.02;62.75
60061;BME280;45933;51.336;12.612;2023-03-13T01:41:10;99039.66;;;9.04;62.56
60061;BME280;45933;51.336;12.612;2023-03-13T01:43:36;99040.56;;;9.00;62.64
60061;BME280;45933;51.336;12.612;2023-03-13T01:48:35;99042.13;;;9.10;62.18
60061;BME280;45933;51.336;12.612;2023-03-13T01:51:04;99022.25;;;9.06;62.59
60061;BME280;45933;51.336;12.612;2023-03-13T01:53:33;99030.00;;;9.12;62.46
60061;BME280;45933;51.336;12.612;2023-03-13T01:55:59;99027.47;;;9.06;62.22
60061;BME280;45933;51.336;12.612;2023-03-13T01:58:27;99030.00;;;9.11;61.97
60061;BME280;45933;51.336;12.612;2023-03-13T02:00:54;99028.31;;;9.07;62.29
60061;BME280;45933;51.336;12.612;2023-03-13T02:03:20;99029.13;;;9.10;62.30
60061;BME280;45933;51.336;12.612;2023-03-13T02:05:47;99023.13;;;9.07;62.33
60061;BME280;45933;51.336;12.612;2023-03-13T02:08:17;99022.34;;;9.03;62.29
60061;BME280;45933;51.336;12.612;2023-03-13T02:11:05;99014.44;;;9.09;62.21
60061;BME280;45933;51.336;12.612;2023-03-13T02:13:31;99004.06;;;9.08;62.36
60061;BME280;45933;51.336;12.612;2023-03-13T02:15:57;99006.59;;;9.11;62.27
60061;BME280;45933;51.336;12.612;2023-03-13T02:18:23;99005.66;;;9.15;62.13
60061;BME280;45933;51.336;12.612;2023-03-13T02:20:52;99012.66;;;9.13;62.19
60061;BME280;45933;51.336;12.612;2023-03-13T02:23:43;99009.88;;;9.22;62.11
60061;BME280;45933;51.336;12.612;2023-03-13T02:26:13;99012.63;;;9.14;61.61
60061;BME280;45933;51.336;12.612;2023-03-13T02:28:38;98998.75;;;9.14;61.97
60061;BME280;45933;51.336;12.612;2023-03-13T02:31:04;98991.81;;;9.14;62.14
60061;BME280;45933;51.336;12.612;2023-03-13T02:33:32;98999.72;;;9.08;62.18
60061;BME280;45933;51.336;12.612;2023-03-13T02:36:00;98984.91;;;9.13;62.20
60061;BME280;45933;51.336;12.612;2023-03-13T02:38:29;98983.00;;;9.22;61.80
60061;BME280;45933;51.336;12.612;2023-03-13T02:40:55;98984.06;;;9.13;62.24
60061;BME280;45933;51.336;12.612;2023-03-13T02:43:23;98973.56;;;9.18;62.06
60061;BME280;45933;51.336;12.612;2023-03-13T02:46:10;98964.69;;;9.28;61.80
60061;BME280;45933;51.336;12.612;2023-03-13T02:48:42;98965.81;;;9.14;62.15
60061;BME280;45933;51.336;12.612;2023-03-13T02:53:55;98963.19;;;9.18;61.95
60061;BME280;45933;51.336;12.612;2023-03-13T02:56:24;98955.25;;;9.24;61.91
60061;BME280;45933;51.336;12.612;2023-03-13T02:58:51;98946.59;;;9.22;61.67
60061;BME280;45933;51.336;12.612;2023-03-13T03:01:16;98939.53;;;9.30;61.47
60061;BME280;45933;51.336;12.612;2023-03-13T03:03:41;98944.81;;;9.25;61.79
60061;BME280;45933;51.336;12.612;2023-03-13T03:06:07;98936.22;;;9.22;62.03
60061;BME280;45933;51.336;12.612;2023-03-13T03:08:34;98930.75;;;9.35;61.40
60061;BME280;45933;51.336;12.612;2023-03-13T03:11:00;98932.06;;;9.13;61.81
60061;BME280;45933;51.336;12.612;2023-03-13T03:13:25;98930.84;;;9.31;61.75
60061;BME280;45933;51.336;12.612;2023-03-13T03:15:50;98923.97;;;9.27;61.35
60061;BME280;45933;51.336;12.612;2023-03-13T03:18:16;98912.69;;;9.29;61.50
60061;BME280;45933;51.336;12.612;2023-03-13T03:20:41;98916.78;;;9.41;61.07
60061;BME280;45933;51.336;12.612;2023-03-13T03:23:06;98901.19;;;9.41;61.01
60061;BME280;45933;51.336;12.612;2023-03-13T03:25:32;98897.75;;;9.39;61.32
60061;BME280;45933;51.336;12.612;2023-03-13T03:27:57;98900.25;;;9.43;61.36
60061;BME280;45933;51.336;12.612;2023-03-13T03:30:22;98887.22;;;9.45;61.03
60061;BME280;45933;51.336;12.612;2023-03-13T03:32:47;98892.44;;;9.43;61.16
60061;BME280;45933;51.336;12.612;2023-03-13T03:35:13;98888.13;;;9.44;61.11
60061;BME280;45933;51.336;12.612;2023-03-13T03:37:38;98876.91;;;9.40;61.44
60061;BME280;45933;51.336;12.612;2023-03-13T03:40:04;98883.09;;;9.35;61.66
60061;BME280;45933;51.336;12.612;2023-03-13T03:42:32;98877.75;;;9.41;61.40
60061;BME280;45933;51.336;12.612;2023-03-13T03:44:58;98882.13;;;9.40;61.29
60061;BME280;45933;51.336;12.612;2023-03-13T03:47:23;98877.75;;;9.41;61.40
60061;BME280;45933;51.336;12.612;2023-03-13T03:49:48;98871.97;;;9.27;61.92
60061;BME280;45933;51.336;12.612;2023-03-13T03:52:13;98867.31;;;9.42;61.27
60061;BME280;45933;51.336;12.612;2023-03-13T03:54:39;98854.31;;;9.42;61.35
60061;BME280;45933;51.336;12.612;2023-03-13T03:57:04;98850.81;;;9.43;60.99
60061;BME280;45933;51.336;12.612;2023-03-13T03:59:29;98854.31;;;9.42;61.59
60061;BME280;45933;51.336;12.612;2023-03-13T04:01:54;98842.13;;;9.46;61.13
60061;BME280;45933;51.336;12.612;2023-03-13T04:04:20;98839.56;;;9.45;61.52
60061;BME280;45933;51.336;12.612;2023-03-13T04:06:45;98835.84;;;9.56;61.01
60061;BME280;45933;51.336;12.612;2023-03-13T04:09:10;98823.19;;;9.39;61.80
60061;BME280;45933;51.336;12.612;2023-03-13T04:11:35;98824.72;;;9.48;61.45
60061;BME280;45933;51.336;12.612;2023-03-13T04:14:01;98829.88;;;9.51;61.39
60061;BME280;45933;51.336;12.612;2023-03-13T04:16:26;98828.94;;;9.54;61.63
60061;BME280;45933;51.336;12.612;2023-03-13T04:18:51;98826.22;;;9.60;61.33
60061;BME280;45933;51.336;12.612;2023-03-13T04:21:17;98822.91;;;9.52;61.67
60061;BME280;45933;51.336;12.612;2023-03-13T04:23:42;98828.03;;;9.56;61.35
60061;BME280;45933;51.336;12.612;2023-03-13T04:26:07;98820.19;;;9.58;61.64
60061;BME280;45933;51.336;12.612;2023-03-13T04:28:32;98801.94;;;9.59;61.93
60061;BME280;45933;51.336;12.612;2023-03-13T04:30:58;98796.63;;;9.65;62.17
60061;BME280;45933;51.336;12.612;2023-03-13T04:33:24;98795.06;;;9.57;62.17
60061;BME280;45933;51.336;12.612;2023-03-13T04:35:49;98796.66;;;9.62;61.91
60061;BME280;45933;51.336;12.612;2023-03-13T04:38:15;98774.22;;;9.58;62.19
60061;BME280;45933;51.336;12.612;2023-03-13T04:40:40;98784.56;;;9.61;61.83
60061;BME280;45933;51.336;12.612;2023-03-13T04:43:07;98775.81;;;9.64;61.69
60061;BME280;45933;51.336;12.612;2023-03-13T04:45:33;98761.09;;;9.63;61.89
60061;BME280;45933;51.336;12.612;2023-03-13T04:47:58;98745.56;;;9.60;62.07
60061;BME280;45933;51.336;12.612;2023-03-13T04:50:23;98737.03;;;9.55;62.47
60061;BME280;45933;51.336;12.612;2023-03-13T04:52:48;98746.31;;;9.65;62.10
60061;BME280;45933;51.336;12.612;2023-03-13T04:55:14;98733.47;;;9.57;62.18
60061;BME280;45933;51.336;12.612;2023-03-13T04:57:39;98736.84;;;9.62;61.86
60061;BME280;45933;51.336;12.612;2023-03-13T05:00:05;98731.47;;;9.68;61.73
60061;BME280;45933;51.336;12.612;2023-03-13T05:02:32;98732.38;;;9.67;61.62
60061;BME280;45933;51.336;12.612;2023-03-13T05:04:58;98727.13;;;9.69;61.63
60061;BME280;45933;51.336;12.612;2023-03-13T05:07:23;98724.69;;;9.63;61.95
60061;BME280;45933;51.336;12.612;2023-03-13T05:09:48;98721.91;;;9.71;61.65
60061;BME280;45933;51.336;12.612;2023-03-13T05:12:13;98714.81;;;9.77;61.54
60061;BME280;45933;51.336;12.612;2023-03-13T05:14:39;98720.97;;;9.73;62.00
60061;BME280;45933;51.336;12.612;2023-03-13T05:17:04;98702.09;;;9.65;61.99
60061;BME280;45933;51.336;12.612;2023-03-13T05:19:29;98696.31;;;9.52;62.41
60061;BME280;45933;51.336;12.612;2023-03-13T05:21:54;98703.97;;;9.58;62.23
60061;BME280;45933;51.336;12.612;2023-03-13T05:24:20;98696.59;;;9.77;61.92
60061;BME280;45933;51.336;12.612;2023-03-13T05:26:45;98683.69;;;9.73;62.00
60061;BME280;45933;51.336;12.612;2023-03-13T05:29:10;98681.78;;;9.79;61.67
60061;BME280;45933;51.336;12.612;2023-03-13T05:31:35;98683.63;;;9.76;62.15
60061;BME280;45933;51.336;12.612;2023-03-13T05:34:01;98679.19;;;9.79;62.29
60061;BME280;45933;51.336;12.612;2023-03-13T05:36:26;98662.91;;;9.71;62.52
60061;BME280;45933;51.336;12.612;2023-03-13T05:38:51;98657.63;;;9.74;62.43
60061;BME280;45933;51.336;12.612;2023-03-13T05:41:16;98647.03;;;9.82;62.13
60061;BME280;45933;51.336;12.612;2023-03-13T05:43:42;98645.28;;;9.82;62.12
60061;BME280;45933;51.336;12.612;2023-03-13T05:46:07;98660.25;;;9.73;62.44
60061;BME280;45933;51.336;12.612;2023-03-13T05:48:32;98643.59;;;9.81;62.37
60061;BME280;45933;51.336;12.612;2023-03-13T05:50:57;98636.56;;;9.83;62.27
60061;BME280;45933;51.336;12.612;2023-03-13T05:53:23;98631.22;;;9.89;61.98
60061;BME280;45933;51.336;12.612;2023-03-13T05:55:48;98619.03;;;9.91;62.12
60061;BME280;45933;51.336;12.612;2023-03-13T05:58:13;98614.56;;;9.95;61.51
60061;BME280;45933;51.336;12.612;2023-03-13T06:00:38;98608.50;;;9.94;61.67
60061;BME280;45933;51.336;12.612;2023-03-13T06:03:04;98600.53;;;10.01;61.51
60061;BME280;45933;51.336;12.612;2023-03-13T06:05:29;98596.34;;;9.97;61.50
60061;BME280;45933;51.336;12.612;2023-03-13T06:07:54;98587.63;;;9.98;61.70
60061;BME280;45933;51.336;12.612;2023-03-13T06:10:19;98581.59;;;9.95;61.89
60061;BME280;45933;51.336;12.612;2023-03-13T06:12:51;98578.19;;;9.93;62.14
60061;BME280;45933;51.336;12.612;2023-03-13T06:15:16;98578.13;;;9.95;62.04
60061;BME280;45933;51.336;12.612;2023-03-13T06:17:41;98572.56;;;10.09;62.38
60061;BME280;45933;51.336;12.612;2023-03-13T06:20:07;98570.56;;;10.17;61.83
60061;BME280;45933;51.336;12.612;2023-03-13T06:22:33;98565.03;;;9.98;62.72
60061;BME280;45933;51.336;12.612;2023-03-13T06:24:58;98561.31;;;10.07;63.09
60061;BME280;45933;51.336;12.612;2023-03-13T06:27:23;98568.44;;;10.00;63.50
60061;BME280;45933;51.336;12.612;2023-03-13T06:29:49;98555.47;;;9.99;63.70
60061;BME280;45933;51.336;12.612;2023-03-13T06:32:14;98559.91;;;9.95;64.18
60061;BME280;45933;51.336;12.612;2023-03-13T06:34:39;98554.53;;;10.01;64.10
60061;BME280;45933;51.336;12.612;2023-03-13T06:37:04;98553.69;;;10.01;64.56
60061;BME280;45933;51.336;12.612;2023-03-13T06:39:30;98552.03;;;9.98;64.57
60061;BME280;45933;51.336;12.612;2023-03-13T06:41:55;98550.34;;;9.95;65.01
60061;BME280;45933;51.336;12.612;2023-03-13T06:44:20;98546.28;;;9.85;65.85
60061;BME280;45933;51.336;12.612;2023-03-13T06:46:46;98543.78;;;9.82;66.16
60061;BME280;45933;51.336;12.612;2023-03-13T06:49:11;98529.66;;;9.91;66.08
60061;BME280;45933;51.336;12.612;2023-03-13T06:51:37;98533.56;;;9.75;67.02
60061;BME280;45933;51.336;12.612;2023-03-13T06:54:02;98520.13;;;9.90;66.29
60061;BME280;45933;51.336;12.612;2023-03-13T06:56:28;98527.19;;;9.86;66.54
60061;BME280;45933;51.336;12.612;2023-03-13T06:58:53;98518.69;;;9.80;67.13
60061;BME280;45933;51.336;12.612;2023-03-13T07:01:18;98531.63;;;9.83;67.14
60061;BME280;45933;51.336;12.612;2023-03-13T07:03:46;98537.38;;;9.94;66.86
60061;BME280;45933;51.336;12.612;2023-03-13T07:06:11;98535.00;;;9.86;67.41
60061;BME280;45933;51.336;12.612;2023-03-13T07:08:37;98543.38;;;9.96;66.84
60061;BME280;45933;51.336;12.612;2023-03-13T07:11:05;98538.97;;;10.00;66.84
60061;BME280;45933;51.336;12.612;2023-03-13T07:13:31;98529.66;;;9.91;67.57
60061;BME280;45933;51.336;12.612;2023-03-13T07:16:07;98541.44;;;10.04;67.08
60061;BME280;45933;51.336;12.612;2023-03-13T07:18:34;98542.34;;;10.03;67.02
60061;BME280;45933;51.336;12.612;2023-03-13T07:21:00;98539.63;;;10.06;66.85
60061;BME280;45933;51.336;12.612;2023-03-13T07:23:28;98532.84;;;10.01;66.90
60061;BME280;45933;51.336;12.612;2023-03-13T07:25:58;98526.72;;;10.03;67.27
60061;BME280;45933;51.336;12.612;2023-03-13T07:28:25;98527.63;;;10.02;67.40
60061;BME280;45933;51.336;12.612;2023-03-13T07:30:52;98520.63;;;10.04;67.13
60061;BME280;45933;51.336;12.612;2023-03-13T07:33:18;98501.38;;;10.10;66.81
60061;BME280;45933;51.336;12.612;2023-03-13T07:35:48;98508.28;;;10.11;67.31
60061;BME280;45933;51.336;12.612;2023-03-13T07:38:13;98485.47;;;10.19;66.69
60061;BME280;45933;51.336;12.612;2023-03-13T07:40:39;98493.47;;;10.13;66.82
60061;BME280;45933;51.336;12.612;2023-03-13T07:43:04;98491.34;;;10.27;66.55
60061;BME280;45933;51.336;12.612;2023-03-13T07:45:29;98500.88;;;10.28;66.04
60061;BME280;45933;51.336;12.612;2023-03-13T07:47:54;98487.94;;;10.25;66.71
60061;BME280;45933;51.336;12.612;2023-03-13T07:50:20;98490.09;;;10.40;66.37
60061;BME280;45933;51.336;12.612;2023-03-13T07:52:45;98506.88;;;10.30;67.00
60061;BME280;45933;51.336;12.612;2023-03-13T07:55:10;98483.19;;;10.38;66.68
60061;BME280;45933;51.336;12.612;2023-03-13T07:57:35;98462.66;;;10.57;66.26
60061;BME280;45933;51.336;12.612;2023-03-13T08:00:01;98477.19;;;10.64;65.97
60061;BME280;45933;51.336;12.612;2023-03-13T08:02:26;98470.91;;;10.71;65.89
60061;BME280;45933;51.336;12.612;2023-03-13T08:04:52;98470.84;;;10.72;65.73
60061;BME280;45933;51.336;12.612;2023-03-13T08:07:17;98492.59;;;10.71;65.88
60061;BME280;45933;51.336;12.612;2023-03-13T08:09:43;98477.63;;;10.78;65.56
60061;BME280;45933;51.336;12.612;2023-03-13T08:12:08;98470.34;;;10.88;65.46
60061;BME280;45933;51.336;12.612;2023-03-13T08:14:33;98469.88;;;11.02;65.04
60061;BME280;45933;51.336;12.612;2023-03-13T08:16:58;98456.59;;;11.09;64.74
60061;BME280;45933;51.336;12.612;2023-03-13T08:19:24;98481.00;;;11.07;64.94
60061;BME280;45933;51.336;12.612;2023-03-13T08:21:49;98486.53;;;11.24;64.68
60061;BME280;45933;51.336;12.612;2023-03-13T08:24:14;98488.09;;;11.30;64.44
60061;BME280;45933;51.336;12.612;2023-03-13T08:26:40;98494.41;;;11.22;64.52
60061;BME280;45933;51.336;12.612;2023-03-13T08:29:11;98508.91;;;11.31;64.38
60061;BME280;45933;51.336;12.612;2023-03-13T08:31:57;98496.19;;;11.47;63.95
60061;BME280;45933;51.336;12.612;2023-03-13T08:34:22;98490.38;;;11.39;64.12
60061;BME280;45933;51.336;12.612;2023-03-13T08:36:47;98475.63;;;11.38;64.16
60061;BME280;45933;51.336;12.612;2023-03-13T08:39:15;98464.72;;;11.51;63.80
60061;BME280;45933;51.336;12.612;2023-03-13T08:41:41;98472.84;;;11.42;63.88
60061;BME280;45933;51.336;12.612;2023-03-13T08:44:09;98474.16;;;11.56;63.71
60061;BME280;45933;51.336;12.612;2023-03-13T08:46:35;98487.41;;;11.49;64.01
60061;BME280;45933;51.336;12.612;2023-03-13T08:49:02;98483.69;;;11.57;64.41
60061;BME280;45933;51.336;12.612;2023-03-13T08:51:28;98482.28;;;11.46;64.88
60061;BME280;45933;51.336;12.612;2023-03-13T08:53:54;98498.16;;;11.40;65.37
60061;BME280;45933;51.336;12.612;2023-03-13T08:56:22;98492.09;;;11.40;65.44
60061;BME280;45933;51.336;12.612;2023-03-13T08:58:53;98491.66;;;11.52;65.11
60061;BME280;45933;51.336;12.612;2023-03-13T09:01:19;98485.41;;;11.31;66.10
60061;BME280;45933;51.336;12.612;2023-03-13T09:03:45;98470.09;;;11.47;65.53
60061;BME280;45933;51.336;12.612;2023-03-13T09:06:11;98483.13;;;11.47;65.22
60061;BME280;45933;51.336;12.612;2023-03-13T09:08:37;98479.69;;;11.46;65.60
60061;BME280;45933;51.336;12.612;2023-03-13T09:11:17;98472.91;;;11.41;66.19
60061;BME280;45933;51.336;12.612;2023-03-13T09:13:45;98474.78;;;11.37;66.18
60061;BME280;45933;51.336;12.612;2023-03-13T09:16:14;98469.25;;;11.46;65.94
60061;BME280;45933;51.336;12.612;2023-03-13T09:18:39;98456.34;;;11.42;65.94
60061;BME280;45933;51.336;12.612;2023-03-13T09:21:08;98464.28;;;11.39;66.41
60061;BME280;45933;51.336;12.612;2023-03-13T09:23:33;98465.25;;;11.36;66.12
60061;BME280;45933;51.336;12.612;2023-03-13T09:25:59;98466.69;;;11.45;66.25
60061;BME280;45933;51.336;12.612;2023-03-13T09:28:25;98462.19;;;11.48;65.97
60061;BME280;45933;51.336;12.612;2023-03-13T09:30:51;98452.53;;;11.52;65.93
60061;BME280;45933;51.336;12.612;2023-03-13T09:33:18;98467.16;;;11.56;65.52
60061;BME280;45933;51.336;12.612;2023-03-13T09:35:44;98468.72;;;11.62;65.58
60061;BME280;45933;51.336;12.612;2023-03-13T09:38:15;98464.28;;;11.64;65.78
60061;BME280;45933;51.336;12.612;2023-03-13T09:40:45;98460.88;;;11.62;65.98
60061;BME280;45933;51.336;12.612;2023-03-13T09:43:24;98455.03;;;11.78;65.25
60061;BME280;45933;51.336;12.612;2023-03-13T09:45:59;98456.41;;;11.65;65.72
60061;BME280;45933;51.336;12.612;2023-03-13T09:48:31;98448.00;;;11.82;65.16
60061;BME280;45933;51.336;12.612;2023-03-13T09:51:06;98437.56;;;11.81;65.80
60061;BME280;45933;51.336;12.612;2023-03-13T09:53:43;98449.06;;;11.75;65.60
60061;BME280;45933;51.336;12.612;2023-03-13T09:56:17;98449.13;;;11.98;65.13
60061;BME280;45933;51.336;12.612;2023-03-13T09:58:55;98448.97;;;12.03;64.97
60061;BME280;45933;51.336;12.612;2023-03-13T10:01:27;98462.47;;;12.14;64.74
60061;BME280;45933;51.336;12.612;2023-03-13T10:06:22;98468.00;;;12.28;64.50
60061;BME280;45933;51.336;12.612;2023-03-13T10:08:49;98479.19;;;12.32;64.50
60061;BME280;45933;51.336;12.612;2023-03-13T10:11:34;98469.00;;;12.48;64.33
60061;BME280;45933;51.336;12.612;2023-03-13T10:14:43;98465.91;;;12.60;63.81
60061;BME280;45933;51.336;12.612;2023-03-13T10:19:41;98447.81;;;12.55;63.91
60061;BME280;45933;51.336;12.612;2023-03-13T10:22:16;98450.19;;;12.62;63.58
60061;BME280;45933;51.336;12.612;2023-03-13T10:24:50;98452.53;;;12.68;63.70
60061;BME280;45933;51.336;12.612;2023-03-13T10:27:18;98450.22;;;12.60;63.71
60061;BME280;45933;51.336;12.612;2023-03-13T10:29:44;98461.66;;;12.57;63.59
60061;BME280;45933;51.336;12.612;2023-03-13T10:32:12;98458.44;;;12.73;63.24
60061;BME280;45933;51.336;12.612;2023-03-13T10:34:46;98462.69;;;12.75;63.44
60061;BME280;45933;51.336;12.612;2023-03-13T10:37:15;98460.88;;;12.77;63.20
60061;BME280;45933;51.336;12.612;2023-03-13T10:39:40;98463.50;;;12.77;63.47
60061;BME280;45933;51.336;12.612;2023-03-13T10:42:15;98466.78;;;12.82;63.27
60061;BME280;45933;51.336;12.612;2023-03-13T10:44:43;98460.69;;;12.82;63.06
60061;BME280;45933;51.336;12.612;2023-03-13T10:47:12;98448.31;;;12.86;63.31
60061;BME280;45933;51.336;12.612;2023-03-13T10:49:46;98455.97;;;12.90;63.38
60061;BME280;45933;51.336;12.612;2023-03-13T10:52:28;98452.34;;;12.94;63.32
60061;BME280;45933;51.336;12.612;2023-03-13T10:54:58;98444.56;;;12.93;63.40
60061;BME280;45933;51.336;12.612;2023-03-13T10:59:51;98432.91;;;13.00;63.49
60061;BME280;45933;51.336;12.612;2023-03-13T11:02:27;98432.00;;;13.01;63.28
60061;BME280;45933;51.336;12.612;2023-03-13T11:04:55;98405.41;;;13.12;63.23
60061;BME280;45933;51.336;12.612;2023-03-13T11:07:28;98421.63;;;13.20;63.08
60061;BME280;45933;51.336;12.612;2023-03-13T11:09:58;98401.19;;;13.29;63.30
60061;BME280;45933;51.336;12.612;2023-03-13T11:12:24;98397.38;;;13.37;63.21
60061;BME280;45933;51.336;12.612;2023-03-13T11:14:56;98388.94;;;13.50;62.97
60061;BME280;45933;51.336;12.612;2023-03-13T11:17:39;98375.50;;;13.58;63.00
60061;BME280;45933;51.336;12.612;2023-03-13T11:20:17;98377.81;;;13.64;62.65
60061;BME280;45933;51.336;12.612;2023-03-13T11:22:55;98346.41;;;13.83;62.53
60061;BME280;45933;51.336;12.612;2023-03-13T11:28:25;98353.81;;;14.11;61.76
60061;BME280;45933;51.336;12.612;2023-03-13T11:31:11;98349.25;;;14.33;61.26
60061;BME280;45933;51.336;12.612;2023-03-13T11:47:56;98318.00;;;15.33;58.44
60061;BME280;45933;51.336;12.612;2023-03-13T11:50:34;98320.06;;;15.43;57.16
60061;BME280;45933;51.336;12.612;2023-03-13T11:53:03;98319.34;;;15.57;57.53
60061;BME280;45933;51.336;12.612;2023-03-13T11:55:58;98321.84;;;15.76;57.46
60061;BME280;45933;51.336;12.612;2023-03-13T11:58:41;98304.72;;;15.85;56.84
60061;BME280;45933;51.336;12.612;2023-03-13T12:01:15;98292.53;;;15.84;55.74
60061;BME280;45933;51.336;12.612;2023-03-13T12:04:04;98318.03;;;15.98;55.99
60061;BME280;45933;51.336;12.612;2023-03-13T12:06:37;98305.22;;;15.91;55.88
60061;BME280;45933;51.336;12.612;2023-03-13T12:09:09;98310.25;;;15.96;55.36
60061;BME280;45933;51.336;12.612;2023-03-13T12:12:14;98322.03;;;16.20;55.86
60061;BME280;45933;51.336;12.612;2023-03-13T12:14:53;98319.75;;;16.44;56.21
60061;BME280;45933;51.336;12.612;2023-03-13T12:17:30;98336.88;;;16.67;55.55
60061;BME280;45933;51.336;12.612;2023-03-13T12:20:19;98330.69;;;17.13;55.85
60061;BME280;45933;51.336;12.612;2023-03-13T12:25:26;98336.44;;;18.05;53.79
60061;BME280;45933;51.336;12.612;2023-03-13T12:28:28;98314.13;;;18.50;52.18
60061;BME280;45933;51.336;12.612;2023-03-13T12:31:16;98302.09;;;18.73;48.62
60061;BME280;45933;51.336;12.612;2023-03-13T12:36:23;98288.34;;;18.81;47.59
60061;BME280;45933;51.336;12.612;2023-03-13T12:39:09;98301.25;;;18.86;48.58
60061;BME280;45933;51.336;12.612;2023-03-13T12:44:46;98300.50;;;18.44;48.61
60061;BME280;45933;51.336;12.612;2023-03-13T12:47:54;98279.38;;;18.44;49.37
60061;BME280;45933;51.336;12.612;2023-03-13T12:50:34;98278.34;;;18.46;49.86
60061;BME280;45933;51.336;12.612;2023-03-13T12:59:27;98286.69;;;18.40;49.41
60061;BME280;45933;51.336;12.612;2023-03-13T13:01:55;98290.81;;;18.17;49.09
60061;BME280;45933;51.336;12.612;2023-03-13T13:04:31;98285.63;;;18.16;49.39
60061;BME280;45933;51.336;12.612;2023-03-13T13:07:04;98296.09;;;18.03;49.66
60061;BME280;45933;51.336;12.612;2023-03-13T13:09:32;98286.56;;;17.88;50.17
60061;BME280;45933;51.336;12.612;2023-03-13T13:12:20;98280.53;;;17.86;50.17
60061;BME280;45933;51.336;12.612;2023-03-13T13:17:34;98288.53;;;17.56;50.65
60061;BME280;45933;51.336;12.612;2023-03-13T13:20:31;98277.53;;;17.63;51.24
60061;BME280;45933;51.336;12.612;2023-03-13T13:23:21;98261.63;;;17.50;51.16
60061;BME280;45933;51.336;12.612;2023-03-13T13:25:48;98250.31;;;17.36;51.19
60061;BME280;45933;51.336;12.612;2023-03-13T13:30:46;98248.41;;;17.23;51.80
60061;BME280;45933;51.336;12.612;2023-03-13T13:35:45;98240.72;;;17.20;51.74
60061;BME280;45933;51.336;12.612;2023-03-13T13:41:00;98252.19;;;17.19;51.75
60061;BME280;45933;51.336;12.612;2023-03-13T13:43:30;98246.44;;;17.13;52.00
60061;BME280;45933;51.336;12.612;2023-03-13T13:46:16;98258.28;;;17.06;52.23
60061;BME280;45933;51.336;12.612;2023-03-13T13:48:44;98237.34;;;17.04;51.93
60061;BME280;45933;51.336;12.612;2023-03-13T13:53:50;98234.88;;;17.01;52.18
60061;BME280;45933;51.336;12.612;2023-03-13T13:58:58;98220.03;;;17.00;52.17
60061;BME280;45933;51.336;12.612;2023-03-13T14:01:23;98207.63;;;17.02;51.95
60061;BME280;45933;51.336;12.612;2023-03-13T14:03:50;98208.53;;;16.87;52.25